sensor_id;sensor_type;location;lat;lon;timestamp;pressure;altitude;pressure_sealevel;temperature;humidity
32789;BME280;19141;48.980;8.410;2023-02-15T05:22:32;101631.03;;;0.08;100.00
32789;BME280;19141;48.980;8.410;2023-02-15T05:24:57;101627.34;;;0.12;100.00
32789;BME280;19141;48.980;8.410;2023-02-15T05:27:41;101627.78;;;0.03;100.00
32789;BME280;19141;48.980;8.410;2023-02-15T05:30:25;101624.88;;;0.09;100.00
32789;BME280;19141;48.980;8.410;2023-02-15T05:32:51;101627.72;;;0.04;100.00
32789;BME280;19141;48.980;8.410;2023-02-15T05:35:16;101623.41;;;0.03;100.00
32789;BME280;19141;48.980;8.410;2023-02-15T05:37:42;101621.25;;;0.11;100.00
32789;BME280;19141;48.980;8.410;2023-02-15T05:40:08;101629.03;;;0.13;100.00
32789;BME280;19141;48.980;8.410;2023-02-15T05:42:33;101629.97;;;0.12;100.00
32789;BME280;19141;48.980;8.410;2023-02-15T05:44:59;101626.41;;;0.13;100.00
32789;BME280;19141;48.980;8.410;2023-02-15T05:47:24;101621.53;;;0.05;100.00
32789;BME280;19141;48.980;8.410;2023-02-15T05:49:49;101630.03;;;0.10;100.00
32789;BME280;19141;48.980;8.410;2023-02-15T05:52:15;101632.38;;;-0.03;100.00
32789;BME280;19141;48.980;8.410;2023-02-15T05:54:40;101640.31;;;-0.04;100.00
32789;BME280;19141;48.980;8.410;2023-02-15T05:57:05;101635.34;;;0.09;100.00
32789;BME280;19141;48.980;8.410;2023-02-15T05:59:31;101633.44;;;0.12;100.00
32789;BME280;19141;48.980;8.410;2023-02-15T06:01:56;101645.28;;;0.21;100.00
32789;BME280;19141;48.980;8.410;2023-02-15T06:04:22;101647.53;;;0.29;100.00
32789;BME280;19141;48.980;8.410;2023-02-15T06:06:47;101645.75;;;0.29;100.00
32789;BME280;19141;48.980;8.410;2023-02-15T06:09:13;101640.41;;;0.13;100.00
32789;BME280;19141;48.980;8.410;2023-02-15T06:11:38;101647.16;;;0.17;100.00
32789;BME280;19141;48.980;8.410;2023-02-15T06:14:04;101648.88;;;0.18;100.00
32789;BME280;19141;48.980;8.410;2023-02-15T06:16:29;101645.56;;;0.15;100.00
32789;BME280;19141;48.980;8.410;2023-02-15T06:18:55;101645.28;;;0.21;100.00
32789;BME280;19141;48.980;8.410;2023-02-15T06:21:20;101653.13;;;0.21;100.00
32789;BME280;19141;48.980;8.410;2023-02-15T06:23:46;101653.13;;;0.21;100.00
32789;BME280;19141;48.980;8.410;2023-02-15T06:26:11;101653.34;;;0.16;100.00
32789;BME280;19141;48.980;8.410;2023-02-15T06:28:36;101659.06;;;0.24;100.00
32789;BME280;19141;48.980;8.410;2023-02-15T06:31:03;101666.00;;;0.25;100.00
32789;BME280;19141;48.980;8.410;2023-02-15T06:33:28;101662.75;;;0.20;100.00
32789;BME280;19141;48.980;8.410;2023-02-15T06:35:56;101666.00;;;0.25;100.00
32789;BME280;19141;48.980;8.410;2023-02-15T06:38:22;101665.66;;;0.33;100.00
32789;BME280;19141;48.980;8.410;2023-02-15T06:40:47;101672.16;;;0.24;100.00
32789;BME280;19141;48.980;8.410;2023-02-15T06:43:13;101672.03;;;0.28;100.00
32789;BME280;19141;48.980;8.410;2023-02-15T06:45:38;101670.09;;;0.31;100.00
32789;BME280;19141;48.980;8.410;2023-02-15T06:48:04;101673.44;;;0.35;100.00
32789;BME280;19141;48.980;8.410;2023-02-15T06:50:32;101678.59;;;0.36;100.00
32789;BME280;19141;48.980;8.410;2023-02-15T06:52:58;101669.88;;;0.36;100.00
32789;BME280;19141;48.980;8.410;2023-02-15T06:55:24;101678.47;;;0.39;100.00
32789;BME280;19141;48.980;8.410;2023-02-15T06:57:49;101677.75;;;0.36;100.00
32789;BME280;19141;48.980;8.410;2023-02-15T07:00:15;101692.16;;;0.27;100.00
32789;BME280;19141;48.980;8.410;2023-02-15T07:02:40;101678.41;;;0.22;100.00
32789;BME280;19141;48.980;8.410;2023-02-15T07:05:06;101676.47;;;0.25;100.00
32789;BME280;19141;48.980;8.410;2023-02-15T07:07:31;101682.81;;;0.21;100.00
32789;BME280;19141;48.980;8.410;2023-02-15T07:09:57;101679.06;;;0.27;100.00
32789;BME280;19141;48.980;8.410;2023-02-15T07:12:22;101676.47;;;0.25;100.00
32789;BME280;19141;48.980;8.410;2023-02-15T07:15:07;101672.25;;;0.23;100.00
32789;BME280;19141;48.980;8.410;2023-02-15T07:17:35;101668.34;;;0.13;100.00
32789;BME280;19141;48.980;8.410;2023-02-15T07:20:02;101677.56;;;0.21;100.00
32789;BME280;19141;48.980;8.410;2023-02-15T07:22:30;101676.72;;;0.21;100.00
32789;BME280;19141;48.980;8.410;2023-02-15T07:24:55;101681.88;;;0.22;100.00
32789;BME280;19141;48.980;8.410;2023-02-15T07:27:21;101677.66;;;0.20;100.00
32789;BME280;19141;48.980;8.410;2023-02-15T07:29:46;101683.22;;;0.12;100.00
32789;BME280;19141;48.980;8.410;2023-02-15T07:32:12;101681.88;;;0.22;100.00
32789;BME280;19141;48.980;8.410;2023-02-15T07:34:38;101686.97;;;0.25;100.00
32789;BME280;19141;48.980;8.410;2023-02-15T07:37:03;101678.81;;;0.32;100.00
32789;BME280;19141;48.980;8.410;2023-02-15T07:39:29;101677.19;;;0.29;100.00
32789;BME280;19141;48.980;8.410;2023-02-15T07:41:55;101683.00;;;0.36;100.00
32789;BME280;19141;48.980;8.410;2023-02-15T07:44:20;101677.41;;;0.24;100.00
32789;BME280;19141;48.980;8.410;2023-02-15T07:46:45;101682.53;;;0.28;100.00
32789;BME280;19141;48.980;8.410;2023-02-15T07:49:11;101677.28;;;0.28;100.00
32789;BME280;19141;48.980;8.410;2023-02-15T07:51:36;101678.38;;;0.41;100.00
32789;BME280;19141;48.980;8.410;2023-02-15T07:54:02;101671.47;;;0.40;100.00
32789;BME280;19141;48.980;8.410;2023-02-15T07:56:27;101667.91;;;0.41;100.00
32789;BME280;19141;48.980;8.410;2023-02-15T07:58:52;101674.56;;;0.48;100.00
32789;BME280;19141;48.980;8.410;2023-02-15T08:03:49;101671.16;;;0.46;100.00
32789;BME280;19141;48.980;8.410;2023-02-15T08:06:15;101668.47;;;0.47;100.00
32789;BME280;19141;48.980;8.410;2023-02-15T08:08:41;101672.84;;;0.47;100.00
32789;BME280;19141;48.980;8.410;2023-02-15T08:14:05;101668.59;;;0.44;100.00
32789;BME280;19141;48.980;8.410;2023-02-15T08:16:36;101663.22;;;0.47;100.00
32789;BME280;19141;48.980;8.410;2023-02-15T08:19:07;101670.28;;;0.45;100.00
32789;BME280;19141;48.980;8.410;2023-02-15T08:21:34;101667.25;;;0.54;100.00
32789;BME280;19141;48.980;8.410;2023-02-15T08:24:00;101666.72;;;0.65;100.00
32789;BME280;19141;48.980;8.410;2023-02-15T08:26:27;101662.00;;;0.54;100.00
32789;BME280;19141;48.980;8.410;2023-02-15T08:28:53;101662.31;;;0.66;100.00
32789;BME280;19141;48.980;8.410;2023-02-15T08:31:19;101661.91;;;0.56;100.00
32789;BME280;19141;48.980;8.410;2023-02-15T08:33:46;101655.44;;;0.46;100.00
32789;BME280;19141;48.980;8.410;2023-02-15T08:36:14;101651.38;;;0.39;100.00
32789;BME280;19141;48.980;8.410;2023-02-15T08:38:41;101655.44;;;0.46;100.00
32789;BME280;19141;48.980;8.410;2023-02-15T08:43:36;101656.38;;;0.62;100.00
32789;BME280;19141;48.980;8.410;2023-02-15T08:46:01;101649.97;;;0.68;100.00
32789;BME280;19141;48.980;8.410;2023-02-15T08:48:27;101649.50;;;0.60;100.00
32789;BME280;19141;48.980;8.410;2023-02-15T08:50:52;101641.53;;;0.44;100.00
32789;BME280;19141;48.980;8.410;2023-02-15T08:53:17;101645.72;;;0.48;100.00
32789;BME280;19141;48.980;8.410;2023-02-15T08:55:47;101639.91;;;0.41;100.00
32789;BME280;19141;48.980;8.410;2023-02-15T08:58:12;101647.78;;;0.41;100.00
32789;BME280;19141;48.980;8.410;2023-02-15T09:00:37;101639.44;;;0.33;100.00
32789;BME280;19141;48.980;8.410;2023-02-15T09:03:03;101633.19;;;0.36;100.00
32789;BME280;19141;48.980;8.410;2023-02-15T09:05:28;101640.84;;;0.40;100.00
32789;BME280;19141;48.980;8.410;2023-02-15T09:07:54;101642.00;;;0.52;100.00
32789;BME280;19141;48.980;8.410;2023-02-15T09:10:19;101645.63;;;0.49;100.00
32789;BME280;19141;48.980;8.410;2023-02-15T09:12:45;101639.53;;;0.49;100.00
32789;BME280;19141;48.980;8.410;2023-02-15T09:15:10;101626.09;;;0.38;100.00
32789;BME280;19141;48.980;8.410;2023-02-15T09:17:36;101625.66;;;0.47;100.00
32789;BME280;19141;48.980;8.410;2023-02-15T09:20:01;101629.97;;;0.48;100.00
32789;BME280;19141;48.980;8.410;2023-02-15T09:22:27;101635.25;;;0.65;100.00
32789;BME280;19141;48.980;8.410;2023-02-15T09:24:53;101627.22;;;0.68;100.00
32789;BME280;19141;48.980;8.410;2023-02-15T09:27:18;101630.16;;;0.79;100.00
32789;BME280;19141;48.980;8.410;2023-02-15T09:29:44;101627.38;;;0.82;100.00
32789;BME280;19141;48.980;8.410;2023-02-15T09:32:13;101628.06;;;0.86;100.00
32789;BME280;19141;48.980;8.410;2023-02-15T09:34:39;101631.56;;;0.87;100.00
32789;BME280;19141;48.980;8.410;2023-02-15T09:37:05;101629.31;;;0.79;100.00
32789;BME280;19141;48.980;8.410;2023-02-15T09:39:31;101628.06;;;0.86;100.00
32789;BME280;19141;48.980;8.410;2023-02-15T09:47:41;101628.75;;;0.90;100.00
32789;BME280;19141;48.980;8.410;2023-02-15T09:56:15;101636.63;;;1.07;100.00
32789;BME280;19141;48.980;8.410;2023-02-15T10:01:15;101644.56;;;1.23;100.00
32789;BME280;19141;48.980;8.410;2023-02-15T10:09:03;101640.16;;;1.23;100.00
32789;BME280;19141;48.980;8.410;2023-02-15T10:11:44;101641.69;;;1.27;100.00
32789;BME280;19141;48.980;8.410;2023-02-15T10:22:22;101634.56;;;1.47;100.00
32789;BME280;19141;48.980;8.410;2023-02-15T10:27:46;101630.44;;;1.58;100.00
32789;BME280;19141;48.980;8.410;2023-02-15T10:33:01;101625.38;;;1.71;100.00
32789;BME280;19141;48.980;8.410;2023-02-15T10:35:36;101620.34;;;1.67;100.00
32789;BME280;19141;48.980;8.410;2023-02-15T10:38:08;101620.78;;;1.59;100.00
32789;BME280;19141;48.980;8.410;2023-02-15T10:46:23;101618.84;;;1.78;100.00
32789;BME280;19141;48.980;8.410;2023-02-15T10:54:33;101613.69;;;1.77;100.00
32789;BME280;19141;48.980;8.410;2023-02-15T10:57:22;101616.22;;;1.78;100.00
32789;BME280;19141;48.980;8.410;2023-02-15T11:03:05;101619.69;;;1.79;100.00
32789;BME280;19141;48.980;8.410;2023-02-15T11:08:09;101615.47;;;1.92;100.00
32789;BME280;19141;48.980;8.410;2023-02-15T11:10:39;101605.28;;;2.02;100.00
32789;BME280;19141;48.980;8.410;2023-02-15T11:13:09;101599.88;;;2.05;100.00
32789;BME280;19141;48.980;8.410;2023-02-15T11:15:41;101600.91;;;2.02;100.00
32789;BME280;19141;48.980;8.410;2023-02-15T11:18:25;101601.13;;;2.13;100.00
32789;BME280;19141;48.980;8.410;2023-02-15T11:20:55;101595.75;;;2.15;100.00
32789;BME280;19141;48.980;8.410;2023-02-15T11:23:24;101596.88;;;2.27;100.00
32789;BME280;19141;48.980;8.410;2023-02-15T11:25:59;101590.34;;;2.18;100.00
32789;BME280;19141;48.980;8.410;2023-02-15T11:28:47;101585.69;;;2.07;100.00
32789;BME280;19141;48.980;8.410;2023-02-15T11:31:20;101580.56;;;2.36;100.00
32789;BME280;19141;48.980;8.410;2023-02-15T11:33:51;101571.50;;;2.41;100.00
32789;BME280;19141;48.980;8.410;2023-02-15T11:36:22;101581.91;;;2.43;100.00
32789;BME280;19141;48.980;8.410;2023-02-15T11:38:54;101558.91;;;2.47;100.00
32789;BME280;19141;48.980;8.410;2023-02-15T11:41:25;101573.88;;;2.60;100.00
32789;BME280;19141;48.980;8.410;2023-02-15T11:44:15;101562.16;;;2.80;100.00
32789;BME280;19141;48.980;8.410;2023-02-15T11:46:43;101559.00;;;2.89;100.00
32789;BME280;19141;48.980;8.410;2023-02-15T11:49:29;101557.13;;;2.91;100.00
32789;BME280;19141;48.980;8.410;2023-02-15T11:51:56;101535.84;;;2.80;100.00
32789;BME280;19141;48.980;8.410;2023-02-15T11:54:27;101530.25;;;3.15;100.00
32789;BME280;19141;48.980;8.410;2023-02-15T11:57:41;101525.56;;;3.20;100.00
32789;BME280;19141;48.980;8.410;2023-02-15T11:59:46;101529.59;;;3.40;100.00
32789;BME280;19141;48.980;8.410;2023-02-15T12:02:20;101515.00;;;3.34;100.00
32789;BME280;19141;48.980;8.410;2023-02-15T12:04:51;101522.22;;;3.45;100.00
32789;BME280;19141;48.980;8.410;2023-02-15T12:07:28;101522.88;;;3.48;100.00
32789;BME280;19141;48.980;8.410;2023-02-15T12:10:32;101517.22;;;3.54;100.00
32789;BME280;19141;48.980;8.410;2023-02-15T12:13:11;101516.59;;;3.78;99.75
32789;BME280;19141;48.980;8.410;2023-02-15T12:15:37;101514.88;;;3.91;97.49
32789;BME280;19141;48.980;8.410;2023-02-15T12:18:04;101504.94;;;4.22;95.69
32789;BME280;19141;48.980;8.410;2023-02-15T12:20:32;101508.09;;;4.79;93.74
32789;BME280;19141;48.980;8.410;2023-02-15T12:23:12;101507.41;;;5.27;91.07
32789;BME280;19141;48.980;8.410;2023-02-15T12:25:56;101506.91;;;5.58;88.35
32789;BME280;19141;48.980;8.410;2023-02-15T12:28:38;101502.63;;;5.44;89.03
32789;BME280;19141;48.980;8.410;2023-02-15T12:31:26;101497.56;;;5.41;89.13
32789;BME280;19141;48.980;8.410;2023-02-15T12:33:53;101498.53;;;5.64;87.72
32789;BME280;19141;48.980;8.410;2023-02-15T12:36:21;101494.63;;;6.18;85.19
32789;BME280;19141;48.980;8.410;2023-02-15T12:41:38;101486.47;;;7.46;75.24
32789;BME280;19141;48.980;8.410;2023-02-15T12:44:20;101478.34;;;8.02;70.39
32789;BME280;19141;48.980;8.410;2023-02-15T12:47:05;101474.94;;;8.43;69.10
32789;BME280;19141;48.980;8.410;2023-02-15T12:49:37;101474.50;;;7.95;69.23
32789;BME280;19141;48.980;8.410;2023-02-15T12:54:43;101474.19;;;7.88;67.67
32789;BME280;19141;48.980;8.410;2023-02-15T12:57:27;101477.41;;;8.03;68.68
32789;BME280;19141;48.980;8.410;2023-02-15T13:00:43;101474.88;;;8.85;66.03
32789;BME280;19141;48.980;8.410;2023-02-15T13:02:50;101470.44;;;9.25;63.69
32789;BME280;19141;48.980;8.410;2023-02-15T13:05:25;101474.03;;;9.45;61.44
32789;BME280;19141;48.980;8.410;2023-02-15T13:08:12;101463.31;;;9.86;60.49
32789;BME280;19141;48.980;8.410;2023-02-15T13:10:42;101461.19;;;9.79;60.35
32789;BME280;19141;48.980;8.410;2023-02-15T13:13:20;101451.31;;;9.41;62.04
32789;BME280;19141;48.980;8.410;2023-02-15T13:15:50;101448.56;;;9.12;63.21
32789;BME280;19141;48.980;8.410;2023-02-15T13:18:28;101439.13;;;8.89;64.53
32789;BME280;19141;48.980;8.410;2023-02-15T13:20:54;101435.78;;;7.71;68.73
32789;BME280;19141;48.980;8.410;2023-02-15T13:23:28;101434.50;;;7.86;69.97
32789;BME280;19141;48.980;8.410;2023-02-15T13:25:56;101434.50;;;7.86;71.22
32789;BME280;19141;48.980;8.410;2023-02-15T13:28:29;101431.47;;;7.70;72.15
32789;BME280;19141;48.980;8.410;2023-02-15T13:30:58;101430.88;;;7.87;71.60
32789;BME280;19141;48.980;8.410;2023-02-15T13:33:28;101425.19;;;7.71;71.86
32789;BME280;19141;48.980;8.410;2023-02-15T13:38:45;101421.25;;;7.43;73.76
32789;BME280;19141;48.980;8.410;2023-02-15T13:41:15;101413.28;;;7.54;74.21
32789;BME280;19141;48.980;8.410;2023-02-15T13:46:47;101408.34;;;7.06;77.22
32789;BME280;19141;48.980;8.410;2023-02-15T13:54:32;101401.38;;;6.94;76.60
32789;BME280;19141;48.980;8.410;2023-02-15T13:59:47;101397.16;;;6.69;78.80
32789;BME280;19141;48.980;8.410;2023-02-15T14:10:09;101395.94;;;6.51;82.39
32789;BME280;19141;48.980;8.410;2023-02-15T14:12:54;101390.44;;;6.65;79.76
32789;BME280;19141;48.980;8.410;2023-02-15T14:15:47;101400.88;;;6.56;80.76
32789;BME280;19141;48.980;8.410;2023-02-15T14:18:38;101403.06;;;6.62;79.69
32789;BME280;19141;48.980;8.410;2023-02-15T14:24:08;101403.16;;;6.83;79.99
32789;BME280;19141;48.980;8.410;2023-02-15T14:29:48;101393.66;;;6.69;80.58
32789;BME280;19141;48.980;8.410;2023-02-15T14:32:20;101394.16;;;6.74;80.28
32789;BME280;19141;48.980;8.410;2023-02-15T14:35:00;101394.03;;;6.75;79.28
32789;BME280;19141;48.980;8.410;2023-02-15T14:37:41;101393.66;;;6.69;79.34
32789;BME280;19141;48.980;8.410;2023-02-15T14:45:35;101389.94;;;6.83;78.89
32789;BME280;19141;48.980;8.410;2023-02-15T14:48:31;101397.16;;;6.80;79.61
32789;BME280;19141;48.980;8.410;2023-02-15T14:50:57;101391.13;;;6.90;78.91
32789;BME280;19141;48.980;8.410;2023-02-15T14:58:38;101389.44;;;6.77;78.79
32789;BME280;19141;48.980;8.410;2023-02-15T15:01:08;101384.88;;;6.68;79.19
32789;BME280;19141;48.980;8.410;2023-02-15T15:03:35;101391.13;;;6.56;81.17
32789;BME280;19141;48.980;8.410;2023-02-15T15:06:03;101393.41;;;6.27;82.48
32789;BME280;19141;48.980;8.410;2023-02-15T15:08:36;101376.91;;;6.23;83.80
32789;BME280;19141;48.980;8.410;2023-02-15T15:11:48;101386.66;;;6.23;83.19
32789;BME280;19141;48.980;8.410;2023-02-15T15:17:02;101382.63;;;6.06;86.06
32789;BME280;19141;48.980;8.410;2023-02-15T15:22:24;101391.50;;;5.94;86.21
32789;BME280;19141;48.980;8.410;2023-02-15T15:24:52;101382.38;;;5.98;86.53
32789;BME280;19141;48.980;8.410;2023-02-15T15:33:07;101375.06;;;5.78;87.99
32789;BME280;19141;48.980;8.410;2023-02-15T15:41:41;101383.19;;;5.63;89.93
32789;BME280;19141;48.980;8.410;2023-02-15T15:49:23;101369.78;;;5.54;91.52
32789;BME280;19141;48.980;8.410;2023-02-15T15:51:49;101353.84;;;5.55;90.61
32789;BME280;19141;48.980;8.410;2023-02-15T15:54:20;101361.25;;;5.50;91.82
32789;BME280;19141;48.980;8.410;2023-02-15T15:57:04;101357.97;;;5.35;91.72
32789;BME280;19141;48.980;8.410;2023-02-15T15:59:33;101369.38;;;5.36;92.02
32789;BME280;19141;48.980;8.410;2023-02-15T16:02:13;101369.88;;;5.17;92.37
32789;BME280;19141;48.980;8.410;2023-02-15T16:04:41;101377.47;;;5.22;92.91
32789;BME280;19141;48.980;8.410;2023-02-15T16:07:22;101377.81;;;5.04;93.65
32789;BME280;19141;48.980;8.410;2023-02-15T16:10:06;101390.50;;;4.99;94.53
32789;BME280;19141;48.980;8.410;2023-02-15T16:12:34;101391.16;;;5.03;94.27
32789;BME280;19141;48.980;8.410;2023-02-15T16:15:22;101392.19;;;5.00;94.99
32789;BME280;19141;48.980;8.410;2023-02-15T16:17:54;101389.38;;;4.90;95.19
32789;BME280;19141;48.980;8.410;2023-02-15T16:23:35;101380.44;;;4.68;96.54
32789;BME280;19141;48.980;8.410;2023-02-15T16:28:54;101373.72;;;4.51;96.73
32789;BME280;19141;48.980;8.410;2023-02-15T16:31:21;101374.84;;;4.47;97.46
32789;BME280;19141;48.980;8.410;2023-02-15T16:33:53;101375.16;;;4.42;97.95
32789;BME280;19141;48.980;8.410;2023-02-15T16:36:28;101375.50;;;4.38;98.08
32789;BME280;19141;48.980;8.410;2023-02-15T16:41:25;101378.97;;;4.25;98.25
32789;BME280;19141;48.980;8.410;2023-02-15T16:43:54;101380.13;;;4.08;99.36
32789;BME280;19141;48.980;8.410;2023-02-15T16:46:28;101390.78;;;4.07;100.00
32789;BME280;19141;48.980;8.410;2023-02-15T16:48:58;101397.13;;;4.04;100.00
32789;BME280;19141;48.980;8.410;2023-02-15T16:51:28;101396.69;;;3.98;100.00
32789;BME280;19141;48.980;8.410;2023-02-15T16:53:56;101401.59;;;3.90;100.00
32789;BME280;19141;48.980;8.410;2023-02-15T16:56:25;101405.28;;;3.87;100.00
32789;BME280;19141;48.980;8.410;2023-02-15T16:58:53;101396.69;;;3.71;100.00
32789;BME280;19141;48.980;8.410;2023-02-15T17:01:22;101400.91;;;3.61;100.00
32789;BME280;19141;48.980;8.410;2023-02-15T17:03:50;101401.47;;;3.51;100.00
32789;BME280;19141;48.980;8.410;2023-02-15T17:06:23;101403.59;;;3.46;100.00
32789;BME280;19141;48.980;8.410;2023-02-15T17:08:51;101397.66;;;3.43;100.00
32789;BME280;19141;48.980;8.410;2023-02-15T17:11:40;101393.84;;;3.34;100.00
32789;BME280;19141;48.980;8.410;2023-02-15T17:16:53;101391.44;;;3.17;100.00
32789;BME280;19141;48.980;8.410;2023-02-15T17:19:27;101392.72;;;3.24;100.00
32789;BME280;19141;48.980;8.410;2023-02-15T17:22:02;101397.00;;;3.12;100.00
32789;BME280;19141;48.980;8.410;2023-02-15T17:24:38;101398.03;;;3.10;100.00
32789;BME280;19141;48.980;8.410;2023-02-15T17:27:15;101399.94;;;3.08;100.00
32789;BME280;19141;48.980;8.410;2023-02-15T17:29:52;101399.66;;;2.98;100.00
32789;BME280;19141;48.980;8.410;2023-02-15T17:32:25;101400.59;;;2.97;100.00
32789;BME280;19141;48.980;8.410;2023-02-15T17:42:41;101400.25;;;2.75;100.00
32789;BME280;19141;48.980;8.410;2023-02-15T17:45:07;101396.97;;;2.71;100.00
32789;BME280;19141;48.980;8.410;2023-02-15T17:47:32;101399.22;;;2.63;100.00
32789;BME280;19141;48.980;8.410;2023-02-15T17:49:59;101403.34;;;2.53;100.00
32789;BME280;19141;48.980;8.410;2023-02-15T17:52:26;101398.56;;;2.45;100.00
32789;BME280;19141;48.980;8.410;2023-02-15T17:54:53;101389.25;;;2.39;100.00
32789;BME280;19141;48.980;8.410;2023-02-15T17:57:37;101390.66;;;2.31;100.00
32789;BME280;19141;48.980;8.410;2023-02-15T18:00:04;101389.25;;;2.25;100.00
32789;BME280;19141;48.980;8.410;2023-02-15T18:02:48;101400.88;;;2.21;100.00
32789;BME280;19141;48.980;8.410;2023-02-15T18:05:32;101397.84;;;2.13;100.00
32789;BME280;19141;48.980;8.410;2023-02-15T18:08:17;101398.88;;;2.10;100.00
32789;BME280;19141;48.980;8.410;2023-02-15T18:11:08;101392.31;;;2.03;100.00
32789;BME280;19141;48.980;8.410;2023-02-15T18:13:53;101404.88;;;1.98;100.00
32789;BME280;19141;48.980;8.410;2023-02-15T18:16:21;101399.28;;;1.88;100.00
32789;BME280;19141;48.980;8.410;2023-02-15T18:18:47;101402.50;;;1.94;100.00
32789;BME280;19141;48.980;8.410;2023-02-15T18:21:13;101406.53;;;1.85;100.00
32789;BME280;19141;48.980;8.410;2023-02-15T18:23:39;101406.13;;;1.77;100.00
32789;BME280;19141;48.980;8.410;2023-02-15T18:26:05;101405.97;;;1.64;100.00
32789;BME280;19141;48.980;8.410;2023-02-15T18:28:31;101403.72;;;1.58;100.00
32789;BME280;19141;48.980;8.410;2023-02-15T18:30:58;101393.31;;;1.41;100.00
32789;BME280;19141;48.980;8.410;2023-02-15T18:38:54;101391.78;;;1.21;100.00
32789;BME280;19141;48.980;8.410;2023-02-15T18:41:20;101398.06;;;1.18;100.00
32789;BME280;19141;48.980;8.410;2023-02-15T18:43:47;101396.03;;;1.07;100.00
32789;BME280;19141;48.980;8.410;2023-02-15T18:46:16;101395.00;;;1.10;100.00
32789;BME280;19141;48.980;8.410;2023-02-15T18:48:42;101388.50;;;1.01;100.00
32789;BME280;19141;48.980;8.410;2023-02-15T18:51:25;101371.47;;;0.93;100.00
32789;BME280;19141;48.980;8.410;2023-02-15T18:53:51;101385.22;;;0.98;100.00
32789;BME280;19141;48.980;8.410;2023-02-15T18:56:20;101382.97;;;0.90;100.00
32789;BME280;19141;48.980;8.410;2023-02-15T18:58:47;101395.16;;;0.91;100.00
32789;BME280;19141;48.980;8.410;2023-02-15T19:01:18;101397.03;;;0.89;100.00
32789;BME280;19141;48.980;8.410;2023-02-15T19:03:44;101387.56;;;0.87;100.00
32789;BME280;19141;48.980;8.410;2023-02-15T19:06:12;101380.16;;;0.77;100.00
32789;BME280;19141;48.980;8.410;2023-02-15T19:08:38;101393.28;;;0.77;100.00
32789;BME280;19141;48.980;8.410;2023-02-15T19:11:04;101382.47;;;0.68;100.00
32789;BME280;19141;48.980;8.410;2023-02-15T19:13:30;101385.84;;;0.70;100.00
32789;BME280;19141;48.980;8.410;2023-02-15T19:15:55;101396.41;;;0.68;100.00
32789;BME280;19141;48.980;8.410;2023-02-15T19:18:22;101394.63;;;0.69;100.00
32789;BME280;19141;48.980;8.410;2023-02-15T19:20:47;101387.19;;;0.61;100.00
32789;BME280;19141;48.980;8.410;2023-02-15T19:23:16;101399.22;;;0.65;100.00
32789;BME280;19141;48.980;8.410;2023-02-15T19:25:44;101395.19;;;0.58;100.00
32789;BME280;19141;48.980;8.410;2023-02-15T19:28:18;101398.00;;;0.55;100.00
32789;BME280;19141;48.980;8.410;2023-02-15T19:30:45;101399.84;;;0.53;100.00
32789;BME280;19141;48.980;8.410;2023-02-15T19:33:19;101387.06;;;0.47;100.00
32789;BME280;19141;48.980;8.410;2023-02-15T19:35:46;101385.84;;;0.37;100.00
32789;BME280;19141;48.980;8.410;2023-02-15T19:38:14;101381.97;;;0.44;100.00
32789;BME280;19141;48.980;8.410;2023-02-15T19:40:40;101382.16;;;0.41;100.00
32789;BME280;19141;48.980;8.410;2023-02-15T19:43:14;101383.53;;;0.31;100.00
32789;BME280;19141;48.980;8.410;2023-02-15T19:45:40;101367.16;;;0.27;100.00
32789;BME280;19141;48.980;8.410;2023-02-15T19:48:06;101373.69;;;0.18;100.00
32789;BME280;19141;48.980;8.410;2023-02-15T19:50:32;101364.06;;;0.19;100.00
32789;BME280;19141;48.980;8.410;2023-02-15T19:52:58;101372.63;;;0.22;100.00
32789;BME280;19141;48.980;8.410;2023-02-15T19:55:26;101368.63;;;0.15;100.00
32789;BME280;19141;48.980;8.410;2023-02-15T19:57:53;101373.78;;;0.17;100.00
32789;BME280;19141;48.980;8.410;2023-02-15T20:00:24;101378.78;;;0.21;100.00
32789;BME280;19141;48.980;8.410;2023-02-15T20:02:51;101364.31;;;0.14;100.00
32789;BME280;19141;48.980;8.410;2023-02-15T20:05:16;101377.41;;;0.14;100.00
32789;BME280;19141;48.980;8.410;2023-02-15T20:07:44;101365.06;;;0.16;100.00
32789;BME280;19141;48.980;8.410;2023-02-15T20:10:15;101372.84;;;0.18;100.00
32789;BME280;19141;48.980;8.410;2023-02-15T20:12:41;101371.34;;;0.14;100.00
32789;BME280;19141;48.980;8.410;2023-02-15T20:17:54;101376.72;;;0.11;100.00
32789;BME280;19141;48.980;8.410;2023-02-15T20:20:21;101377.56;;;0.11;100.00
32789;BME280;19141;48.980;8.410;2023-02-15T20:22:49;101380.97;;;0.13;100.00
32789;BME280;19141;48.980;8.410;2023-02-15T20:25:20;101396.06;;;0.08;100.00
32789;BME280;19141;48.980;8.410;2023-02-15T20:27:46;101393.44;;;0.08;100.00
32789;BME280;19141;48.980;8.410;2023-02-15T20:30:29;101387.59;;;0.03;100.00
32789;BME280;19141;48.980;8.410;2023-02-15T20:32:55;101384.81;;;0.06;100.00
32789;BME280;19141;48.980;8.410;2023-02-15T20:35:23;101403.75;;;0.11;100.00
32789;BME280;19141;48.980;8.410;2023-02-15T20:37:51;101405.94;;;0.03;100.00
32789;BME280;19141;48.980;8.410;2023-02-15T20:40:19;101419.75;;;0.07;100.00
32789;BME280;19141;48.980;8.410;2023-02-15T20:42:45;101421.56;;;0.05;100.00
32789;BME280;19141;48.980;8.410;2023-02-15T20:45:21;101426.41;;;0.12;100.00
32789;BME280;19141;48.980;8.410;2023-02-15T20:47:47;101426.28;;;0.15;100.00
32789;BME280;19141;48.980;8.410;2023-02-15T20:50:14;101428.34;;;0.09;100.00
32789;BME280;19141;48.980;8.410;2023-02-15T20:52:40;101423.13;;;0.09;100.00
32789;BME280;19141;48.980;8.410;2023-02-15T20:55:15;101417.97;;;0.07;100.00
32789;BME280;19141;48.980;8.410;2023-02-15T20:57:41;101411.88;;;-0.11;100.00
32789;BME280;19141;48.980;8.410;2023-02-15T21:00:18;101423.28;;;-0.12;100.00
32789;BME280;19141;48.980;8.410;2023-02-15T21:02:49;101423.78;;;-0.22;100.00